Time;durP1;ratioP1;P1;durP2;ratioP2;P2;SDS_P1;SDS_P2;PMS_P1;PMS_P2;Temp;Humidity;BMP_temperature;BMP_pressure;BME280_temperature;BME280_humidity;BME280_pressure;Samples;Min_cycle;Max_cycle;Signal;HPM_P1;HPM_P2
2024/04/26 00:00:11;;;;;;;6.67;3.57;;;1.90;99.90;;;;;;5263791;27;20176;-82
2024/04/26 00:02:37;;;;;;;8.90;4.27;;;1.90;99.90;;;;;;5264398;27;21057;-82
2024/04/26 00:05:03;;;;;;;6.93;3.87;;;1.80;99.90;;;;;;5263176;27;20061;-81
2024/04/26 00:07:28;;;;;;;6.53;4.03;;;1.80;99.90;;;;;;5262549;27;20422;-82
2024/04/26 00:09:54;;;;;;;9.37;4.00;;;1.80;99.90;;;;;;5264157;27;21692;-82
2024/04/26 00:12:20;;;;;;;8.00;4.00;;;1.80;99.90;;;;;;5264285;27;20014;-82
2024/04/26 00:14:45;;;;;;;5.90;4.10;;;1.70;99.90;;;;;;5263931;27;20076;-82
2024/04/26 00:17:11;;;;;;;7.87;4.00;;;1.70;99.90;;;;;;5263102;27;20021;-82
2024/04/26 00:19:36;;;;;;;7.77;3.43;;;1.70;99.90;;;;;;5264163;27;20010;-81
2024/04/26 00:22:02;;;;;;;8.63;4.17;;;1.60;99.90;;;;;;5259102;27;20006;-82
2024/04/26 00:24:28;;;;;;;7.47;3.57;;;1.60;99.90;;;;;;5263346;27;19998;-82
2024/04/26 00:26:54;;;;;;;4.53;3.10;;;1.50;99.90;;;;;;5262696;27;20014;-82
2024/04/26 00:29:20;;;;;;;5.70;3.80;;;1.50;99.90;;;;;;5263564;27;20002;-82
2024/04/26 00:31:46;;;;;;;11.00;3.40;;;1.50;99.90;;;;;;5263364;27;20147;-82
2024/04/26 00:34:12;;;;;;;5.77;3.07;;;1.50;99.90;;;;;;5260936;27;21161;-82
2024/04/26 00:36:41;;;;;;;4.73;3.47;;;1.50;99.90;;;;;;5261923;27;21598;-82
2024/04/26 00:39:07;;;;;;;8.37;3.40;;;1.40;99.90;;;;;;5262869;27;20002;-82
2024/04/26 00:41:34;;;;;;;8.73;3.30;;;1.40;99.90;;;;;;5263237;27;20006;-82
2024/04/26 00:44:14;;;;;;;8.00;3.70;;;1.40;99.90;;;;;;5262658;27;20002;-82
2024/04/26 00:46:44;;;;;;;5.80;3.20;;;1.30;99.90;;;;;;5261402;27;20014;-82
2024/04/26 00:49:10;;;;;;;7.83;3.33;;;1.30;99.90;;;;;;5263034;27;20116;-82
2024/04/26 00:51:36;;;;;;;6.17;3.33;;;1.30;99.90;;;;;;5262715;27;21489;-83
2024/04/26 00:54:04;;;;;;;4.90;3.10;;;1.30;99.90;;;;;;5263212;27;20021;-82
2024/04/26 00:56:30;;;;;;;8.10;3.60;;;1.30;99.90;;;;;;5262039;27;20006;-82
2024/04/26 00:58:57;;;;;;;5.10;3.00;;;1.30;99.90;;;;;;5262640;27;20029;-82
2024/04/26 01:01:23;;;;;;;6.50;3.50;;;1.30;99.90;;;;;;5262253;27;20021;-82
2024/04/26 01:03:49;;;;;;;5.80;2.93;;;1.30;99.90;;;;;;5263174;27;20002;-81
2024/04/26 01:06:14;;;;;;;7.60;3.23;;;1.30;99.90;;;;;;5261928;27;20010;-82
2024/04/26 01:08:40;;;;;;;5.17;2.90;;;1.30;99.90;;;;;;5262482;27;20014;-82
2024/04/26 01:11:06;;;;;;;4.80;3.10;;;1.30;99.90;;;;;;5262158;27;19999;-82
2024/04/26 01:13:32;;;;;;;4.60;3.20;;;1.30;99.90;;;;;;5262494;27;20020;-82
2024/04/26 01:15:58;;;;;;;7.77;3.30;;;1.30;99.90;;;;;;5262391;27;20503;-82
2024/04/26 01:18:24;;;;;;;6.27;4.10;;;1.30;99.90;;;;;;5263504;27;20010;-81
2024/04/26 01:20:50;;;;;;;4.97;2.93;;;1.30;99.90;;;;;;5262034;27;19994;-82
2024/04/26 01:23:17;;;;;;;5.73;3.20;;;1.20;99.90;;;;;;5262950;27;20061;-82
2024/04/26 01:25:56;;;;;;;4.00;3.30;;;1.20;99.90;;;;;;5262623;27;20013;-83
2024/04/26 01:28:22;;;;;;;4.40;3.53;;;1.20;99.90;;;;;;5263018;27;20450;-82
2024/04/26 01:30:47;;;;;;;4.43;3.20;;;1.10;99.90;;;;;;5263503;27;20006;-82
2024/04/26 01:33:13;;;;;;;6.60;3.07;;;1.10;99.90;;;;;;5259994;27;20014;-82
2024/04/26 01:35:39;;;;;;;5.80;3.60;;;1.10;99.90;;;;;;5259786;27;20017;-83
2024/04/26 01:38:04;;;;;;;6.80;3.37;;;1.00;99.90;;;;;;5262701;27;20801;-82
2024/04/26 01:40:30;;;;;;;5.53;3.77;;;1.00;99.90;;;;;;5259651;27;20024;-82
2024/04/26 01:42:55;;;;;;;5.83;3.47;;;1.00;99.90;;;;;;5262594;27;20099;-82
2024/04/26 01:45:21;;;;;;;6.67;4.07;;;1.00;99.90;;;;;;5262912;27;20043;-82
2024/04/26 01:47:46;;;;;;;8.27;3.80;;;0.90;99.90;;;;;;5262758;27;20043;-82
2024/04/26 01:50:12;;;;;;;7.37;3.47;;;0.90;99.90;;;;;;5262099;27;20010;-82
2024/04/26 01:52:38;;;;;;;5.17;3.50;;;0.90;99.90;;;;;;5263115;27;20025;-82
2024/04/26 01:55:03;;;;;;;4.90;3.50;;;0.90;99.90;;;;;;5262583;27;20092;-82
2024/04/26 01:57:29;;;;;;;7.00;3.70;;;0.90;99.90;;;;;;5262139;27;20039;-82
2024/04/26 01:59:54;;;;;;;6.30;3.83;;;0.90;99.90;;;;;;5262505;27;20034;-81
2024/04/26 02:02:20;;;;;;;5.80;3.60;;;0.80;99.90;;;;;;5264701;27;20024;-82
2024/04/26 02:04:45;;;;;;;5.17;3.50;;;0.80;99.90;;;;;;5264861;27;20006;-82
2024/04/26 02:07:11;;;;;;;5.53;3.37;;;0.80;99.90;;;;;;5264291;27;20773;-82
2024/04/26 02:09:37;;;;;;;4.93;3.57;;;0.80;99.90;;;;;;5264181;27;20383;-82
2024/04/26 02:12:02;;;;;;;8.07;3.47;;;0.70;99.90;;;;;;5265459;27;20012;-82
2024/04/26 02:14:28;;;;;;;4.80;3.83;;;0.70;99.90;;;;;;5265251;27;20017;-82
2024/04/26 02:16:55;;;;;;;5.37;3.57;;;0.70;99.90;;;;;;5264129;27;20045;-82
2024/04/26 02:19:21;;;;;;;6.40;3.47;;;0.70;99.90;;;;;;5264405;27;20014;-82
2024/04/26 02:21:47;;;;;;;7.93;3.80;;;0.70;99.90;;;;;;5264095;27;20010;-82
2024/04/26 02:24:13;;;;;;;6.43;3.70;;;0.70;99.90;;;;;;5264975;27;20007;-81
2024/04/26 02:26:39;;;;;;;8.97;4.37;;;0.70;99.90;;;;;;5263980;27;20107;-82
2024/04/26 02:29:04;;;;;;;8.93;3.70;;;0.70;99.90;;;;;;5263099;27;20013;-82
2024/04/26 02:31:30;;;;;;;6.83;3.80;;;0.70;99.90;;;;;;5265463;27;20027;-82
2024/04/26 02:33:56;;;;;;;5.70;3.70;;;0.70;99.90;;;;;;5264418;27;20478;-81
2024/04/26 02:36:21;;;;;;;6.10;3.60;;;0.70;99.90;;;;;;5263192;27;20054;-82
2024/04/26 02:38:47;;;;;;;5.73;3.63;;;0.70;99.90;;;;;;5265510;27;20007;-82
2024/04/26 02:41:13;;;;;;;5.10;3.60;;;0.70;99.90;;;;;;5264516;27;20072;-82
2024/04/26 02:43:41;;;;;;;6.87;3.60;;;0.70;99.90;;;;;;5265124;27;20026;-82
2024/04/26 02:46:10;;;;;;;9.97;4.13;;;0.70;99.90;;;;;;5263945;27;20086;-83
2024/04/26 02:48:36;;;;;;;5.93;3.83;;;0.70;99.90;;;;;;5268476;27;20014;-82
2024/04/26 02:51:02;;;;;;;7.37;3.80;;;0.70;99.90;;;;;;5269190;27;20021;-82
2024/04/26 02:53:28;;;;;;;6.70;3.60;;;0.70;99.90;;;;;;5266491;27;20007;-82
2024/04/26 02:55:53;;;;;;;6.43;3.43;;;0.70;99.90;;;;;;5264308;27;20034;-82
2024/04/26 02:58:19;;;;;;;5.50;3.47;;;0.70;99.90;;;;;;5264030;27;20030;-82
2024/04/26 03:00:44;;;;;;;6.13;3.20;;;0.70;99.90;;;;;;5265233;27;20002;-81
2024/04/26 03:03:10;;;;;;;11.40;5.30;;;0.70;99.90;;;;;;5264924;27;20010;-82
2024/04/26 03:05:35;;;;;;;9.47;4.67;;;0.70;99.90;;;;;;5264801;27;20002;-82
2024/04/26 03:08:01;;;;;;;8.17;4.20;;;0.70;99.90;;;;;;5264224;27;20006;-82
2024/04/26 03:10:28;;;;;;;11.77;3.90;;;0.70;99.90;;;;;;5264774;27;20136;-82
2024/04/26 03:12:53;;;;;;;6.33;3.67;;;0.70;99.90;;;;;;5264011;27;20038;-82
2024/04/26 03:15:19;;;;;;;10.63;3.60;;;0.70;99.90;;;;;;5263550;27;20014;-82
2024/04/26 03:17:44;;;;;;;6.30;4.30;;;0.80;99.90;;;;;;5263568;27;20002;-82
2024/04/26 03:20:10;;;;;;;8.53;3.50;;;0.80;99.90;;;;;;5263436;27;20013;-82
2024/04/26 03:22:36;;;;;;;7.37;3.77;;;0.80;99.90;;;;;;5263167;27;20021;-82
2024/04/26 03:25:02;;;;;;;5.27;3.60;;;0.80;99.90;;;;;;5264485;27;19998;-84
2024/04/26 03:27:27;;;;;;;8.53;3.77;;;0.90;99.90;;;;;;5263760;27;20006;-84
2024/04/26 03:29:53;;;;;;;6.70;3.20;;;0.90;99.90;;;;;;5263812;27;20006;-82
2024/04/26 03:32:18;;;;;;;6.07;3.33;;;1.00;99.90;;;;;;5263960;27;20138;-82
2024/04/26 03:34:44;;;;;;;4.43;2.90;;;1.00;99.90;;;;;;5264085;27;20013;-82
2024/04/26 03:37:09;;;;;;;5.87;3.27;;;1.00;99.90;;;;;;5264362;27;20013;-83
2024/04/26 03:39:35;;;;;;;4.63;3.20;;;1.00;99.90;;;;;;5263759;27;20066;-83
2024/04/26 03:42:00;;;;;;;5.87;3.80;;;1.00;99.90;;;;;;5263793;27;20014;-83
2024/04/26 03:44:26;;;;;;;5.67;2.97;;;1.00;99.90;;;;;;5264444;27;20021;-83
2024/04/26 03:46:51;;;;;;;6.10;3.50;;;0.90;99.90;;;;;;5263455;27;20002;-83
2024/04/26 03:49:17;;;;;;;6.27;3.27;;;0.90;99.90;;;;;;5264096;27;20013;-83
2024/04/26 03:51:42;;;;;;;8.97;3.70;;;0.90;99.90;;;;;;5263692;27;20036;-82
2024/04/26 03:54:08;;;;;;;7.27;3.33;;;0.90;99.90;;;;;;5264318;27;20029;-82
2024/04/26 03:56:34;;;;;;;5.97;3.27;;;0.80;99.90;;;;;;5263417;27;20002;-83
2024/04/26 03:59:00;;;;;;;5.80;3.10;;;0.80;99.90;;;;;;5262600;27;20018;-83
2024/04/26 04:01:25;;;;;;;5.93;3.27;;;0.80;99.90;;;;;;5263931;27;20006;-83
2024/04/26 04:03:51;;;;;;;8.40;4.13;;;0.80;99.90;;;;;;5263930;27;20006;-83
2024/04/26 04:06:16;;;;;;;7.57;3.67;;;0.80;99.90;;;;;;5263429;27;20013;-83
2024/04/26 04:08:44;;;;;;;5.70;3.33;;;0.80;99.90;;;;;;5263906;27;19998;-83
2024/04/26 04:11:10;;;;;;;6.83;3.40;;;0.80;99.90;;;;;;5261233;27;20010;-83
2024/04/26 04:13:35;;;;;;;8.00;3.27;;;0.80;99.90;;;;;;5262684;27;21319;-83
2024/04/26 04:16:01;;;;;;;6.07;3.60;;;0.80;99.90;;;;;;5262656;27;20017;-83
2024/04/26 04:18:27;;;;;;;6.93;3.70;;;0.80;99.90;;;;;;5264127;27;20093;-83
2024/04/26 04:20:52;;;;;;;7.53;3.47;;;0.80;99.90;;;;;;5261957;27;20022;-83
2024/04/26 04:23:18;;;;;;;6.87;3.63;;;0.90;99.90;;;;;;5259205;27;20010;-84
2024/04/26 04:25:44;;;;;;;5.93;3.33;;;0.90;99.90;;;;;;5262346;27;20351;-84
2024/04/26 04:28:10;;;;;;;4.10;3.30;;;0.80;99.90;;;;;;5263473;27;20010;-83
2024/04/26 04:30:35;;;;;;;7.57;3.30;;;0.80;99.90;;;;;;5262818;27;20028;-83
2024/04/26 04:33:02;;;;;;;5.37;3.37;;;0.90;99.90;;;;;;5262992;27;20029;-84
2024/04/26 04:35:28;;;;;;;5.53;3.30;;;0.90;99.90;;;;;;5264440;27;20014;-84
2024/04/26 04:37:53;;;;;;;9.70;3.13;;;0.90;99.90;;;;;;5261638;27;20010;-83
2024/04/26 04:40:19;;;;;;;7.97;3.20;;;0.90;99.90;;;;;;5261267;27;20029;-83
2024/04/26 04:42:44;;;;;;;10.33;3.20;;;0.90;99.90;;;;;;5261684;27;20132;-83
2024/04/26 04:45:10;;;;;;;8.00;3.37;;;1.00;99.90;;;;;;5262012;27;20077;-83
2024/04/26 04:47:35;;;;;;;4.93;3.20;;;1.00;99.90;;;;;;5263122;27;20010;-83
2024/04/26 04:50:01;;;;;;;9.03;3.50;;;1.00;99.90;;;;;;5250937;27;20007;-82
2024/04/26 04:52:26;;;;;;;7.43;3.50;;;1.10;99.90;;;;;;5256498;27;20632;-83
2024/04/26 04:54:52;;;;;;;7.13;3.60;;;1.10;99.90;;;;;;5260750;27;20014;-84
2024/04/26 04:57:17;;;;;;;9.17;3.20;;;1.20;99.90;;;;;;5259243;27;20006;-83
2024/04/26 04:59:43;;;;;;;6.63;3.20;;;1.20;99.90;;;;;;5260280;27;20038;-83
2024/04/26 05:02:08;;;;;;;9.27;5.23;;;1.30;99.90;;;;;;5259996;27;20010;-83
2024/04/26 05:04:34;;;;;;;17.33;4.43;;;1.40;99.90;;;;;;5262198;27;20015;-83
2024/04/26 05:07:00;;;;;;;9.13;4.43;;;1.40;99.90;;;;;;5261064;27;20081;-83
2024/04/26 05:09:25;;;;;;;4.40;3.27;;;1.40;99.90;;;;;;5261516;27;20035;-83
2024/04/26 05:11:52;;;;;;;5.63;3.60;;;1.50;99.90;;;;;;5261231;27;20459;-83
2024/04/26 05:14:17;;;;;;;6.43;3.77;;;1.60;99.90;;;;;;5260847;27;20028;-83
2024/04/26 05:16:43;;;;;;;6.73;4.60;;;1.60;99.90;;;;;;5257998;27;20030;-83
2024/04/26 05:19:09;;;;;;;11.07;4.10;;;1.70;99.90;;;;;;5260590;27;20046;-82
2024/04/26 05:21:35;;;;;;;8.37;3.83;;;1.80;99.90;;;;;;5260504;27;20010;-82
2024/04/26 05:24:01;;;;;;;10.07;3.77;;;1.80;99.90;;;;;;5260776;27;20093;-82
2024/04/26 05:26:26;;;;;;;5.87;3.37;;;1.90;99.90;;;;;;5261499;27;20010;-82
2024/04/26 05:28:52;;;;;;;8.10;3.83;;;2.00;99.90;;;;;;5262365;27;20006;-82
2024/04/26 05:31:18;;;;;;;7.17;3.20;;;2.10;99.90;;;;;;5263026;27;20076;-83
2024/04/26 05:33:43;;;;;;;6.07;3.30;;;2.20;99.90;;;;;;5259139;27;20014;-83
2024/04/26 05:36:09;;;;;;;4.20;2.87;;;2.20;99.90;;;;;;5261768;27;20046;-84
2024/04/26 05:38:35;;;;;;;5.70;2.77;;;2.30;99.90;;;;;;5262849;27;20315;-88
2024/04/26 05:41:00;;;;;;;4.67;2.80;;;2.40;99.90;;;;;;5263533;27;20021;-85
2024/04/26 05:43:26;;;;;;;6.70;3.10;;;2.50;99.90;;;;;;5262769;27;20447;-84
2024/04/26 05:45:52;;;;;;;4.63;2.67;;;2.60;99.90;;;;;;5261289;27;20006;-83
2024/04/26 05:48:18;;;;;;;4.53;2.73;;;2.80;99.90;;;;;;5262812;27;20038;-84
2024/04/26 05:50:43;;;;;;;5.97;3.00;;;2.90;99.90;;;;;;5263141;27;20002;-83
2024/04/26 05:53:09;;;;;;;4.77;2.20;;;3.10;99.90;;;;;;5263225;27;20815;-84
2024/04/26 05:55:35;;;;;;;5.77;2.00;;;3.30;99.90;;;;;;5261693;27;19998;-85
2024/04/26 05:58:00;;;;;;;3.53;2.03;;;3.50;99.90;;;;;;5260393;27;20081;-85
2024/04/26 06:00:28;;;;;;;5.97;2.90;;;3.70;99.90;;;;;;5261516;27;20498;-85
2024/04/26 06:02:56;;;;;;;5.20;2.20;;;3.90;99.90;;;;;;5261065;27;20100;-84
2024/04/26 06:05:22;;;;;;;5.43;2.30;;;4.20;99.90;;;;;;5262985;27;20006;-84
2024/04/26 06:07:47;;;;;;;3.73;2.20;;;4.50;99.90;;;;;;5262302;27;20054;-84
2024/04/26 06:10:13;;;;;;;4.23;2.00;;;4.70;99.90;;;;;;5261636;27;20002;-84
2024/04/26 06:12:41;;;;;;;3.13;1.70;;;5.00;99.90;;;;;;5260263;27;20007;-84
2024/04/26 06:15:07;;;;;;;4.27;1.93;;;5.40;99.90;;;;;;5262866;27;20013;-85
2024/04/26 06:17:33;;;;;;;6.73;1.70;;;5.70;99.90;;;;;;5261072;27;20010;-84
2024/04/26 06:19:59;;;;;;;3.77;2.20;;;6.00;99.90;;;;;;5263228;27;20735;-84
2024/04/26 06:22:25;;;;;;;5.07;2.57;;;6.20;99.90;;;;;;5264656;27;20021;-84
2024/04/26 06:24:51;;;;;;;4.03;1.90;;;6.50;99.90;;;;;;5265003;27;20006;-84
2024/04/26 06:27:16;;;;;;;5.27;1.73;;;6.70;99.90;;;;;;5258366;27;20802;-84
2024/04/26 06:29:42;;;;;;;6.50;1.93;;;6.80;99.90;;;;;;5262724;27;20014;-84
2024/04/26 06:32:08;;;;;;;7.10;1.80;;;6.80;99.90;;;;;;5261118;27;20018;-85
2024/04/26 06:34:33;;;;;;;6.70;2.30;;;6.90;99.90;;;;;;5261456;27;20021;-84
2024/04/26 06:37:01;;;;;;;5.80;2.03;;;6.90;99.90;;;;;;5263322;27;20014;-84
2024/04/26 06:39:27;;;;;;;5.83;2.17;;;7.10;99.90;;;;;;5263252;27;20376;-84
2024/04/26 06:41:52;;;;;;;7.17;1.73;;;7.20;99.90;;;;;;5262717;27;20055;-84
2024/04/26 06:44:18;;;;;;;9.57;2.03;;;7.40;99.90;;;;;;5253381;27;20018;-84
2024/04/26 06:46:44;;;;;;;4.57;1.70;;;7.50;99.90;;;;;;5259546;27;20109;-84
2024/04/26 06:49:09;;;;;;;5.70;1.70;;;7.60;99.90;;;;;;5261979;27;20006;-85
2024/04/26 06:51:35;;;;;;;3.97;1.60;;;7.80;99.90;;;;;;5264249;27;20014;-84
2024/04/26 06:54:00;;;;;;;3.47;1.57;;;7.90;99.90;;;;;;5265842;27;20425;-84
2024/04/26 06:56:26;;;;;;;5.43;1.40;;;8.00;99.90;;;;;;5264787;27;20006;-85
2024/04/26 06:58:51;;;;;;;8.57;2.20;;;8.10;99.90;;;;;;5264734;27;20097;-85
2024/04/26 07:01:17;;;;;;;3.63;1.50;;;8.20;99.90;;;;;;5263932;27;20431;-84
2024/04/26 07:03:42;;;;;;;6.73;2.23;;;8.30;99.90;;;;;;5264599;27;20411;-82
2024/04/26 07:06:08;;;;;;;5.37;1.60;;;8.40;99.90;;;;;;5262753;27;20101;-82
2024/04/26 07:08:34;;;;;;;9.33;1.53;;;8.50;99.90;;;;;;5265590;27;20045;-83
2024/04/26 07:10:59;;;;;;;4.47;1.40;;;8.60;99.90;;;;;;5266550;27;20006;-84
2024/04/26 07:13:25;;;;;;;4.33;1.73;;;8.70;99.90;;;;;;5265805;27;20018;-83
2024/04/26 07:15:51;;;;;;;4.53;1.80;;;8.80;99.90;;;;;;5265709;27;20006;-85
2024/04/26 07:18:18;;;;;;;5.40;1.57;;;9.00;99.90;;;;;;5266402;27;20017;-83
2024/04/26 07:20:43;;;;;;;7.27;1.70;;;9.10;99.90;;;;;;5263712;27;20087;-83
2024/04/26 07:23:10;;;;;;;7.63;1.87;;;9.30;99.90;;;;;;5266402;27;20062;-82
2024/04/26 07:25:36;;;;;;;3.57;1.50;;;9.50;99.90;;;;;;5266177;27;20038;-83
2024/04/26 07:28:01;;;;;;;3.93;1.57;;;9.60;99.90;;;;;;5267177;27;20026;-82
2024/04/26 07:30:27;;;;;;;13.47;1.97;;;9.80;99.90;;;;;;5265772;27;20014;-83
2024/04/26 07:32:52;;;;;;;5.40;1.50;;;10.00;99.90;;;;;;5263427;27;20002;-82
2024/04/26 07:35:18;;;;;;;4.50;1.57;;;10.10;99.90;;;;;;5263785;27;20002;-83
2024/04/26 07:37:43;;;;;;;4.40;1.50;;;10.20;99.90;;;;;;5263593;27;20020;-83
2024/04/26 07:40:09;;;;;;;5.60;1.47;;;10.40;99.90;;;;;;5265287;27;20689;-83
2024/04/26 07:42:34;;;;;;;6.27;1.70;;;10.60;99.90;;;;;;5267753;27;20640;-83
2024/04/26 07:45:00;;;;;;;4.90;1.40;;;10.80;99.90;;;;;;5265786;27;20024;-83
2024/04/26 07:47:25;;;;;;;2.83;1.50;;;10.90;99.90;;;;;;5263995;27;20021;-84
2024/04/26 07:49:51;;;;;;;5.82;1.40;;;11.10;99.90;;;;;;5265556;27;20010;-83
2024/04/26 07:52:17;;;;;;;3.03;1.42;;;11.30;99.90;;;;;;5265425;27;20018;-83
2024/04/26 07:54:42;;;;;;;4.00;1.50;;;11.40;99.90;;;;;;5264473;27;20049;-83
2024/04/26 07:57:10;;;;;;;8.50;1.50;;;11.50;99.90;;;;;;5262282;27;20010;-83
2024/04/26 07:59:36;;;;;;;4.50;1.40;;;11.70;99.90;;;;;;5263009;27;20014;-83
2024/04/26 08:02:02;;;;;;;2.58;1.30;;;11.90;99.90;;;;;;5265268;27;20042;-84
2024/04/26 08:04:27;;;;;;;7.45;1.20;;;12.10;99.90;;;;;;5264633;27;20007;-82
2024/04/26 08:06:53;;;;;;;7.28;1.45;;;12.20;99.90;;;;;;5264260;27;20029;-83
2024/04/26 08:09:19;;;;;;;7.32;1.20;;;12.30;99.90;;;;;;5262213;27;20010;-83
2024/04/26 08:11:45;;;;;;;3.75;1.48;;;12.40;99.90;;;;;;5264196;27;20010;-84
2024/04/26 08:14:11;;;;;;;3.85;1.10;;;12.40;99.90;;;;;;5265533;27;20097;-83
2024/04/26 08:16:36;;;;;;;4.72;1.48;;;12.50;99.90;;;;;;5264174;27;20010;-83
2024/04/26 08:19:02;;;;;;;1.65;1.00;;;12.60;99.90;;;;;;5265138;27;20016;-83
2024/04/26 08:21:27;;;;;;;6.22;1.50;;;12.70;99.90;;;;;;5262836;27;20006;-83
2024/04/26 08:23:56;;;;;;;10.18;1.42;;;12.80;99.90;;;;;;5264758;27;20266;-83
2024/04/26 08:26:22;;;;;;;2.85;1.10;;;12.90;99.90;;;;;;5261870;27;20095;-84
2024/04/26 08:28:47;;;;;;;5.18;1.45;;;12.90;99.90;;;;;;5262844;27;20040;-83
2024/04/26 08:31:13;;;;;;;7.13;1.50;;;13.00;99.90;;;;;;5263149;27;20034;-84
2024/04/26 08:33:38;;;;;;;5.15;1.25;;;13.00;99.90;;;;;;5261305;27;20030;-83
2024/04/26 08:36:05;;;;;;;2.30;1.17;;;13.10;99.90;;;;;;5263497;27;20005;-83
2024/04/26 08:38:30;;;;;;;5.63;0.93;;;13.10;99.90;;;;;;5263638;27;19994;-83
2024/04/26 08:40:56;;;;;;;5.05;1.13;;;13.10;99.90;;;;;;5263395;27;21820;-84
2024/04/26 08:43:22;;;;;;;1.92;1.00;;;13.00;99.90;;;;;;5262384;27;20017;-83
2024/04/26 08:45:52;;;;;;;2.13;1.05;;;13.00;99.90;;;;;;5263765;27;20191;-83
2024/04/26 08:48:19;;;;;;;2.88;0.90;;;13.10;99.90;;;;;;5261304;27;20367;-83
2024/04/26 08:50:44;;;;;;;5.32;1.10;;;13.20;99.90;;;;;;5261588;27;20495;-83
2024/04/26 08:53:17;;;;;;;1.63;1.10;;;13.40;99.90;;;;;;5261522;27;20006;-83
2024/04/26 08:55:43;;;;;;;3.00;1.27;;;13.40;99.90;;;;;;5261309;27;20017;-83
2024/04/26 08:58:11;;;;;;;4.97;1.30;;;13.60;99.90;;;;;;5261650;27;20033;-83
2024/04/26 09:00:38;;;;;;;3.53;1.15;;;13.70;99.90;;;;;;5264256;27;20006;-83
2024/04/26 09:03:04;;;;;;;2.67;1.30;;;13.70;99.90;;;;;;5265106;27;20820;-82
2024/04/26 09:05:31;;;;;;;2.33;1.05;;;13.80;99.90;;;;;;5265520;27;20002;-84
2024/04/26 09:07:58;;;;;;;2.63;1.13;;;13.90;99.90;;;;;;5265455;27;20014;-82
2024/04/26 09:10:25;;;;;;;3.97;1.15;;;14.00;99.90;;;;;;5263882;27;20092;-82
2024/04/26 09:12:51;;;;;;;1.88;1.00;;;13.90;99.90;;;;;;5262311;27;20128;-82
2024/04/26 09:15:18;;;;;;;2.40;1.10;;;13.90;99.90;;;;;;5263769;27;20489;-83
2024/04/26 09:17:44;;;;;;;3.45;1.30;;;13.90;99.90;;;;;;5264000;27;20668;-82
2024/04/26 09:20:09;;;;;;;2.55;1.30;;;14.00;99.90;;;;;;5256863;27;20017;-83
2024/04/26 09:22:37;;;;;;;2.92;1.00;;;14.10;99.90;;;;;;5257718;27;20003;-84
2024/04/26 09:25:04;;;;;;;5.63;1.30;;;14.30;99.90;;;;;;5259211;27;20006;-83
2024/04/26 09:27:30;;;;;;;4.40;1.40;;;14.40;99.90;;;;;;5260656;27;20010;-83
2024/04/26 09:29:55;;;;;;;2.90;1.20;;;14.50;99.90;;;;;;5261808;27;20088;-83
2024/04/26 09:32:23;;;;;;;6.07;1.23;;;14.60;99.90;;;;;;5263892;27;20786;-82
2024/04/26 09:34:53;;;;;;;5.55;1.10;;;14.80;99.90;;;;;;5263190;27;20010;-84
2024/04/26 09:37:20;;;;;;;2.30;0.88;;;15.10;99.90;;;;;;5261137;27;20042;-83
2024/04/26 09:39:50;;;;;;;3.22;1.10;;;15.30;99.90;;;;;;5259283;27;20010;-84
2024/04/26 09:42:20;;;;;;;3.65;1.85;;;15.60;99.90;;;;;;5258821;27;20053;-84
2024/04/26 09:44:53;;;;;;;3.17;1.13;;;15.90;99.90;;;;;;5259067;27;20014;-83
2024/04/26 09:47:25;;;;;;;4.45;0.80;;;16.20;98.10;;;;;;5257353;27;20025;-76
2024/04/26 09:49:51;;;;;;;1.80;0.90;;;16.30;98.30;;;;;;5253914;27;20017;-77
2024/04/26 09:52:17;;;;;;;3.80;1.10;;;16.40;98.00;;;;;;5253605;27;20045;-76
2024/04/26 09:54:44;;;;;;;3.00;1.10;;;16.30;97.60;;;;;;5257966;27;21037;-77
2024/04/26 09:57:11;;;;;;;2.22;1.02;;;16.30;97.10;;;;;;5255177;27;19998;-76
2024/04/26 09:59:37;;;;;;;1.63;1.00;;;16.40;97.80;;;;;;5255511;27;20029;-78
2024/04/26 10:02:07;;;;;;;4.30;1.02;;;16.60;97.30;;;;;;5249163;27;20057;-78
2024/04/26 10:04:39;;;;;;;2.03;1.05;;;16.90;96.70;;;;;;5254641;27;20025;-76
2024/04/26 10:07:05;;;;;;;5.30;1.00;;;17.20;95.50;;;;;;5255438;27;20025;-76
2024/04/26 10:09:31;;;;;;;2.10;1.00;;;17.30;94.40;;;;;;5255272;27;20010;-76
2024/04/26 10:11:56;;;;;;;1.92;0.90;;;17.40;94.40;;;;;;5257078;27;21294;-76
2024/04/26 10:14:32;;;;;;;4.30;1.67;;;17.40;93.90;;;;;;5256985;27;20350;-76
2024/04/26 10:17:11;;;;;;;2.65;1.88;;;17.70;94.70;;;;;;5255770;27;20489;-76
2024/04/26 10:19:37;;;;;;;1.83;1.08;;;17.80;94.60;;;;;;5256430;27;20009;-76
2024/04/26 10:22:10;;;;;;;1.38;1.00;;;17.80;93.50;;;;;;5255408;27;20021;-76
2024/04/26 10:24:37;;;;;;;1.40;0.80;;;17.90;95.60;;;;;;5259709;27;20025;-76
2024/04/26 10:27:03;;;;;;;2.15;1.10;;;17.90;93.20;;;;;;5256964;27;20084;-76
2024/04/26 10:29:30;;;;;;;1.58;1.00;;;18.20;94.20;;;;;;5258179;27;20014;-76
2024/04/26 10:32:06;;;;;;;3.17;1.08;;;18.20;94.30;;;;;;5256410;27;20021;-76
2024/04/26 10:34:35;;;;;;;0.88;0.75;;;18.20;93.50;;;;;;5258403;27;20006;-76
2024/04/26 10:37:02;;;;;;;1.48;1.00;;;18.40;93.00;;;;;;5256919;27;20951;-76
2024/04/26 10:39:30;;;;;;;0.85;0.77;;;18.30;92.00;;;;;;5257739;27;20029;-76
2024/04/26 10:41:57;;;;;;;1.52;0.80;;;18.30;93.00;;;;;;5256986;27;20006;-77
2024/04/26 10:44:25;;;;;;;1.42;1.00;;;18.30;92.90;;;;;;5256317;27;20015;-76
2024/04/26 10:46:54;;;;;;;1.45;0.90;;;18.30;91.40;;;;;;5256995;27;20010;-76
2024/04/26 10:49:20;;;;;;;2.20;1.00;;;18.30;89.30;;;;;;5255023;27;20009;-76
2024/04/26 10:51:46;;;;;;;1.17;0.77;;;18.30;87.30;;;;;;5257566;27;20002;-76
2024/04/26 10:54:16;;;;;;;6.50;1.10;;;18.10;91.00;;;;;;5255124;27;20006;-82
2024/04/26 10:56:42;;;;;;;2.03;0.88;;;17.90;90.80;;;;;;5256136;27;20043;-76
2024/04/26 10:59:18;;;;;;;2.45;1.00;;;18.00;88.10;;;;;;5255760;27;20006;-77
2024/04/26 11:01:44;;;;;;;1.67;0.95;;;17.90;87.90;;;;;;5257208;27;20065;-76
2024/04/26 11:04:16;;;;;;;1.88;1.08;;;17.90;88.00;;;;;;5255927;27;20014;-76
2024/04/26 11:06:41;;;;;;;1.05;0.85;;;17.90;87.80;;;;;;5255445;27;20041;-77
2024/04/26 11:09:12;;;;;;;1.02;0.88;;;18.00;88.90;;;;;;5255869;27;20033;-76
2024/04/26 11:11:40;;;;;;;2.00;1.00;;;18.30;81.90;;;;;;5258487;27;20077;-77
2024/04/26 11:14:06;;;;;;;1.70;0.98;;;18.00;84.40;;;;;;5256302;27;20359;-76
2024/04/26 11:16:32;;;;;;;1.52;0.90;;;17.80;83.00;;;;;;5254533;27;20043;-76
2024/04/26 11:18:57;;;;;;;5.00;1.20;;;17.80;86.30;;;;;;5256160;27;20021;-76
2024/04/26 11:21:23;;;;;;;2.83;1.10;;;17.80;84.80;;;;;;5249264;27;20087;-78
2024/04/26 11:23:48;;;;;;;1.80;1.00;;;17.50;84.10;;;;;;5252074;27;20047;-77
2024/04/26 11:26:14;;;;;;;1.13;0.80;;;17.20;89.80;;;;;;5254160;27;20352;-76
2024/04/26 11:28:42;;;;;;;2.53;1.00;;;17.20;90.30;;;;;;5254824;27;20721;-77
2024/04/26 11:31:08;;;;;;;0.80;0.80;;;17.30;89.90;;;;;;5256080;27;20014;-77
2024/04/26 11:33:34;;;;;;;1.75;1.02;;;17.40;90.20;;;;;;5255601;27;20032;-77
2024/04/26 11:35:59;;;;;;;1.60;1.02;;;17.90;86.30;;;;;;5253832;27;20903;-78
2024/04/26 11:38:25;;;;;;;1.75;1.10;;;18.10;83.40;;;;;;5255345;27;20018;-77
2024/04/26 11:40:50;;;;;;;2.13;0.90;;;18.20;87.60;;;;;;5254121;27;20002;-78
2024/04/26 11:43:16;;;;;;;1.73;1.17;;;18.40;85.40;;;;;;5253913;27;20443;-77
2024/04/26 11:45:42;;;;;;;1.88;1.15;;;18.50;84.60;;;;;;5254793;27;20002;-77
2024/04/26 11:48:08;;;;;;;2.08;1.00;;;18.30;85.80;;;;;;5254534;27;20011;-76
2024/04/26 11:50:34;;;;;;;4.47;0.90;;;18.30;87.20;;;;;;5256136;27;20038;-77
2024/04/26 11:52:59;;;;;;;1.95;0.80;;;18.30;83.70;;;;;;5251271;27;20046;-79
2024/04/26 11:55:25;;;;;;;2.75;0.88;;;18.20;84.50;;;;;;5253599;27;20005;-77
2024/04/26 11:57:50;;;;;;;1.02;0.90;;;18.30;87.20;;;;;;5256308;27;20014;-78
2024/04/26 12:00:16;;;;;;;1.50;1.00;;;18.50;81.70;;;;;;5257182;27;20678;-77
2024/04/26 12:02:42;;;;;;;1.00;0.90;;;18.90;81.40;;;;;;5255440;27;20431;-77
2024/04/26 12:05:07;;;;;;;1.52;1.10;;;19.40;81.20;;;;;;5252605;27;20010;-77
2024/04/26 12:07:33;;;;;;;1.63;1.10;;;19.40;80.10;;;;;;5254127;27;20006;-77
2024/04/26 12:09:59;;;;;;;2.72;0.90;;;19.60;82.50;;;;;;5254626;27;21055;-77
2024/04/26 12:12:24;;;;;;;1.33;0.90;;;19.80;79.70;;;;;;5253583;27;20010;-78
2024/04/26 12:14:50;;;;;;;2.60;0.90;;;19.90;80.70;;;;;;5249188;27;20090;-78
2024/04/26 12:17:16;;;;;;;1.92;0.98;;;19.80;80.20;;;;;;5252312;27;20394;-78
2024/04/26 12:19:44;;;;;;;2.40;0.88;;;19.70;80.00;;;;;;5253843;27;20674;-77
2024/04/26 12:22:09;;;;;;;2.58;1.00;;;19.40;77.90;;;;;;5253805;27;20109;-77
2024/04/26 12:24:36;;;;;;;3.17;0.80;;;19.00;80.00;;;;;;5254888;27;20014;-77
2024/04/26 12:27:06;;;;;;;2.25;1.00;;;18.90;79.00;;;;;;5254787;27;21746;-77
2024/04/26 12:29:31;;;;;;;2.05;0.95;;;18.50;83.20;;;;;;5254234;27;20025;-77
2024/04/26 12:31:57;;;;;;;1.50;0.80;;;18.30;77.70;;;;;;5254609;27;20509;-77
2024/04/26 12:34:24;;;;;;;0.90;0.70;;;18.10;83.50;;;;;;5253389;27;20033;-77
2024/04/26 12:36:50;;;;;;;2.60;1.40;;;17.90;84.50;;;;;;5255309;27;20066;-78
2024/04/26 12:39:16;;;;;;;2.22;1.10;;;17.80;85.80;;;;;;5255195;27;20040;-77
2024/04/26 12:41:44;;;;;;;1.20;0.80;;;17.70;86.60;;;;;;5255839;27;20011;-76
2024/04/26 12:44:11;;;;;;;3.83;1.23;;;17.70;86.40;;;;;;5254946;27;20455;-76
2024/04/26 12:46:37;;;;;;;8.05;2.53;;;17.90;85.80;;;;;;5254939;27;20669;-77